Time;durP1;ratioP1;P1;durP2;ratioP2;P2;SDS_P1;SDS_P2;PMS_P1;PMS_P2;Temp;Humidity;BMP_temperature;BMP_pressure;BME280_temperature;BME280_humidity;BME280_pressure;Samples;Min_cycle;Max_cycle;Signal;HPM_P1;HPM_P2
2022/11/03 00:02:03;;;;;;;12.98;3.22;;;8.80;99.90;;;;;;4985517;28;20031;-75
2022/11/03 00:04:28;;;;;;;9.52;3.25;;;8.80;99.90;;;;;;4985810;28;20027;-78
2022/11/03 00:06:54;;;;;;;11.32;2.60;;;8.80;99.90;;;;;;4985651;28;20086;-75
2022/11/03 00:09:21;;;;;;;16.08;2.97;;;8.80;99.90;;;;;;4967393;28;20031;-75
2022/11/03 00:11:50;;;;;;;11.05;2.75;;;8.80;99.90;;;;;;4982777;28;20027;-75
2022/11/03 00:14:16;;;;;;;7.70;3.17;;;8.80;99.90;;;;;;4968375;28;20027;-74
2022/11/03 00:16:42;;;;;;;18.40;3.17;;;8.80;99.90;;;;;;4985550;28;20042;-76
2022/11/03 00:19:09;;;;;;;12.88;3.53;;;8.80;99.90;;;;;;4985727;28;20030;-75
2022/11/03 00:21:35;;;;;;;10.98;3.22;;;8.80;99.90;;;;;;4985208;28;20054;-74
2022/11/03 00:24:01;;;;;;;13.02;3.38;;;8.90;99.90;;;;;;4985596;28;20027;-75
2022/11/03 00:26:52;;;;;;;;;;;;;;;;;;;;;
2022/11/03 00:29:20;;;;;;;12.82;3.30;;;8.90;99.90;;;;;;4985027;28;20110;-77
2022/11/03 00:31:46;;;;;;;7.25;2.90;;;8.90;99.90;;;;;;4985311;28;20109;-76
2022/11/03 00:34:11;;;;;;;13.85;3.00;;;8.90;99.90;;;;;;4985698;28;20486;-75
2022/11/03 00:36:40;;;;;;;8.63;3.22;;;9.00;99.90;;;;;;4985106;28;20039;-76
2022/11/03 00:39:06;;;;;;;7.30;2.67;;;8.90;99.90;;;;;;4967453;28;20102;-76
2022/11/03 00:41:32;;;;;;;10.23;2.63;;;8.90;99.90;;;;;;4985152;28;20027;-75
2022/11/03 00:43:58;;;;;;;9.63;2.42;;;9.00;99.90;;;;;;4985203;28;20448;-77
2022/11/03 00:46:25;;;;;;;12.77;3.13;;;9.00;99.90;;;;;;4985304;28;20027;-77
2022/11/03 00:48:51;;;;;;;15.18;3.35;;;9.00;99.90;;;;;;4967854;28;20053;-75
2022/11/03 00:51:20;;;;;;;10.93;2.70;;;9.00;99.90;;;;;;4967463;28;20414;-75
2022/11/03 00:54:00;;;;;;;9.60;2.53;;;9.00;99.90;;;;;;4985407;28;20022;-75
2022/11/03 00:56:31;;;;;;;14.13;3.15;;;9.10;99.90;;;;;;4967054;28;20043;-77
2022/11/03 00:58:59;;;;;;;9.40;2.50;;;9.10;99.90;;;;;;4983775;28;20041;-76
2022/11/03 01:01:32;;;;;;;15.25;2.83;;;9.10;99.90;;;;;;4985173;28;20053;-76
2022/11/03 01:06:49;;;;;;;12.35;3.05;;;9.20;99.90;;;;;;4984931;28;20066;-76
2022/11/03 01:09:25;;;;;;;11.00;3.15;;;9.10;99.90;;;;;;4983931;28;20031;-75
2022/11/03 01:11:51;;;;;;;9.65;2.33;;;9.10;99.90;;;;;;4965550;29;20028;-76
2022/11/03 01:14:16;;;;;;;8.52;2.30;;;9.10;99.90;;;;;;4977117;28;20042;-76
2022/11/03 01:16:42;;;;;;;13.50;3.50;;;9.10;99.90;;;;;;4984643;28;20035;-75
2022/11/03 01:19:08;;;;;;;11.07;2.75;;;9.20;99.90;;;;;;4966926;28;20031;-76
2022/11/03 01:21:34;;;;;;;13.98;3.13;;;9.20;99.90;;;;;;4985016;28;20046;-76
2022/11/03 01:24:02;;;;;;;10.55;3.25;;;9.20;99.90;;;;;;4967445;28;20081;-75
2022/11/03 01:26:28;;;;;;;13.80;3.22;;;9.10;99.90;;;;;;4984565;28;20098;-76
2022/11/03 01:28:54;;;;;;;11.93;2.78;;;9.20;99.90;;;;;;4984962;28;20494;-76
2022/11/03 01:31:22;;;;;;;11.48;2.83;;;9.10;99.90;;;;;;4967279;28;20026;-76
2022/11/03 01:33:51;;;;;;;11.85;2.45;;;9.20;99.90;;;;;;4984630;28;20529;-77
2022/11/03 01:36:19;;;;;;;12.82;2.70;;;9.20;99.90;;;;;;4984737;28;20062;-75
2022/11/03 01:38:48;;;;;;;15.45;2.88;;;9.10;99.90;;;;;;4985114;28;20046;-74
2022/11/03 01:41:20;;;;;;;15.25;3.03;;;9.20;99.90;;;;;;4984629;28;20454;-77
2022/11/03 01:44:06;;;;;;;14.02;3.10;;;9.10;99.90;;;;;;4984624;28;20031;-75
2022/11/03 01:46:53;;;;;;;9.70;2.58;;;9.20;99.90;;;;;;4973953;28;20039;-75
2022/11/03 01:49:29;;;;;;;15.35;3.15;;;9.10;99.90;;;;;;4953939;28;20131;-77
2022/11/03 01:52:05;;;;;;;15.45;2.60;;;9.10;99.90;;;;;;4966547;28;20031;-76
2022/11/03 01:54:36;;;;;;;11.13;2.20;;;9.10;99.90;;;;;;4981682;28;20069;-76
2022/11/03 01:57:06;;;;;;;10.98;3.00;;;9.10;99.90;;;;;;4983090;28;20113;-76
2022/11/03 01:59:32;;;;;;;9.77;2.50;;;9.10;99.90;;;;;;4984609;28;20434;-77
2022/11/03 02:01:58;;;;;;;19.65;3.60;;;9.10;99.90;;;;;;4984031;28;20030;-77
2022/11/03 02:04:28;;;;;;;10.90;2.75;;;9.10;99.90;;;;;;4983096;28;20026;-77
2022/11/03 02:07:01;;;;;;;15.25;3.17;;;9.10;99.90;;;;;;4984186;28;20047;-77
2022/11/03 02:09:28;;;;;;;20.57;3.07;;;9.10;99.90;;;;;;4987316;28;20023;-76
2022/11/03 02:12:06;;;;;;;15.05;2.70;;;9.10;99.90;;;;;;4986556;28;20274;-76
2022/11/03 02:14:34;;;;;;;9.73;2.80;;;9.10;99.90;;;;;;4986335;28;20962;-75
2022/11/03 02:17:04;;;;;;;13.68;2.70;;;9.10;99.90;;;;;;4987476;28;20463;-76
2022/11/03 02:19:40;;;;;;;12.25;2.95;;;9.10;99.90;;;;;;4986082;28;20047;-76
2022/11/03 02:22:11;;;;;;;10.73;2.65;;;9.00;99.90;;;;;;4966878;29;20028;-77
2022/11/03 02:25:00;;;;;;;7.97;2.53;;;9.10;99.90;;;;;;4968397;29;20482;-73
2022/11/03 02:27:26;;;;;;;13.70;3.10;;;9.00;99.90;;;;;;4951129;29;20039;-75
2022/11/03 02:29:52;;;;;;;10.75;2.75;;;9.00;99.90;;;;;;4968393;29;20035;-77
2022/11/03 02:32:25;;;;;;;10.98;3.00;;;9.00;99.90;;;;;;4972813;28;20368;-76
2022/11/03 02:35:12;;;;;;;11.45;2.78;;;9.00;99.90;;;;;;4970207;28;20030;-78
2022/11/03 02:37:44;;;;;;;23.15;3.17;;;8.90;99.90;;;;;;4987253;28;20096;-77
2022/11/03 02:40:17;;;;;;;13.90;2.80;;;8.80;99.90;;;;;;4987622;28;20073;-75
2022/11/03 02:42:49;;;;;;;12.80;2.75;;;8.90;99.90;;;;;;4985631;28;20057;-76
2022/11/03 02:45:20;;;;;;;8.25;2.13;;;8.90;99.90;;;;;;4970139;28;20053;-75
2022/11/03 02:47:47;;;;;;;8.43;2.30;;;8.80;99.90;;;;;;4970187;28;20027;-75
2022/11/03 02:50:14;;;;;;;11.95;2.40;;;8.80;99.90;;;;;;4987213;28;20061;-76
2022/11/03 02:52:45;;;;;;;12.30;2.90;;;8.80;99.90;;;;;;4969268;28;20035;-75
2022/11/03 02:55:22;;;;;;;13.45;2.47;;;8.70;99.90;;;;;;4970323;28;20046;-75
2022/11/03 02:57:56;;;;;;;9.13;2.75;;;8.70;99.90;;;;;;4987344;28;20086;-73
2022/11/03 03:00:22;;;;;;;;;;;8.60;99.90;;;;;;4986390;28;20391;-75
2022/11/03 03:03:04;;;;;;;14.95;3.08;;;8.60;99.90;;;;;;4987307;28;19910;-74
2022/11/03 03:05:33;;;;;;;14.30;2.47;;;8.60;99.90;;;;;;4986921;28;20526;-75
2022/11/03 03:08:06;;;;;;;11.77;2.78;;;8.60;99.90;;;;;;4986825;28;20043;-76
2022/11/03 03:10:50;;;;;;;18.13;2.40;;;8.60;99.90;;;;;;4985708;28;20030;-74
2022/11/03 03:13:20;;;;;;;17.65;2.53;;;8.60;99.90;;;;;;4986652;28;20022;-75
2022/11/03 03:16:08;;;;;;;13.45;3.30;;;8.50;99.90;;;;;;4986868;28;20057;-75
2022/11/03 03:18:49;;;;;;;16.13;3.00;;;8.50;99.90;;;;;;4972316;28;20127;-76
2022/11/03 03:21:30;;;;;;;12.45;2.22;;;8.50;99.90;;;;;;4969130;28;20035;-77
2022/11/03 03:24:30;;;;;;;6.45;2.28;;;8.50;99.90;;;;;;4986832;28;20039;-78
2022/11/03 03:27:00;;;;;;;11.18;2.70;;;8.50;99.90;;;;;;4972474;28;20064;-79
2022/11/03 03:29:32;;;;;;;16.17;2.50;;;8.50;99.90;;;;;;4986766;28;20034;-78
2022/11/03 03:32:02;;;;;;;19.80;2.80;;;8.50;99.90;;;;;;4986331;28;20037;-75
2022/11/03 03:34:29;;;;;;;12.10;2.88;;;8.50;99.90;;;;;;4986564;28;20027;-76
2022/11/03 03:36:58;;;;;;;16.42;3.30;;;8.50;99.90;;;;;;4968577;28;20487;-77
2022/11/03 03:39:29;;;;;;;11.98;2.80;;;8.50;99.90;;;;;;4986323;28;20027;-78
2022/11/03 03:41:56;;;;;;;16.02;2.97;;;8.50;99.90;;;;;;4985948;28;20031;-76
2022/11/03 03:44:23;;;;;;;12.25;2.90;;;8.50;99.90;;;;;;4968571;28;20034;-78
2022/11/03 03:47:19;;;;;;;14.85;2.38;;;8.50;99.90;;;;;;4986133;28;20058;-77
2022/11/03 03:49:45;;;;;;;8.98;2.40;;;8.50;99.90;;;;;;4986264;28;20464;-75
2022/11/03 03:52:14;;;;;;;10.85;2.60;;;8.50;99.90;;;;;;4985942;28;20697;-76
2022/11/03 03:54:40;;;;;;;11.48;2.90;;;8.50;99.90;;;;;;4985804;28;20026;-77
2022/11/03 03:57:12;;;;;;;8.75;2.42;;;8.50;99.90;;;;;;4986001;28;20034;-75
2022/11/03 03:59:38;;;;;;;16.17;2.92;;;8.50;99.90;;;;;;4985659;28;20027;-75
2022/11/03 04:02:07;;;;;;;12.95;3.00;;;8.40;99.90;;;;;;4986010;28;20475;-76
2022/11/03 04:04:33;;;;;;;15.50;2.58;;;8.40;99.90;;;;;;4968348;28;20046;-75
2022/11/03 04:09:42;;;;;;;9.68;3.15;;;8.50;99.90;;;;;;4986113;28;20057;-78
2022/11/03 04:23:11;;;;;;;;;;;8.40;99.90;;;;;;4985683;28;20042;-78
2022/11/03 04:25:37;;;;;;;11.43;2.50;;;8.50;99.90;;;;;;4985445;28;19910;-77
2022/11/03 04:28:13;;;;;;;10.07;2.25;;;8.40;99.90;;;;;;4985222;28;20031;-77
2022/11/03 04:30:39;;;;;;;10.43;1.90;;;8.40;99.90;;;;;;4984890;28;20030;-77
2022/11/03 04:33:13;;;;;;;13.30;2.42;;;8.40;99.90;;;;;;4985603;28;20030;-76
2022/11/03 04:35:53;;;;;;;9.75;2.03;;;8.40;99.90;;;;;;4967259;28;20074;-77
2022/11/03 04:38:22;;;;;;;7.25;2.33;;;8.40;99.90;;;;;;4984415;28;20080;-75
2022/11/03 04:40:53;;;;;;;11.85;2.15;;;8.40;99.90;;;;;;4967814;28;20030;-76
2022/11/03 04:43:21;;;;;;;13.80;2.50;;;8.40;99.90;;;;;;4984908;28;20514;-77
2022/11/03 04:45:49;;;;;;;14.55;2.30;;;8.40;99.90;;;;;;4967963;28;20185;-75
2022/11/03 04:48:21;;;;;;;13.00;2.40;;;8.50;99.90;;;;;;4985392;28;20030;-74
2022/11/03 04:50:51;;;;;;;15.20;2.90;;;8.40;99.90;;;;;;4967622;28;20031;-76
2022/11/03 04:53:19;;;;;;;10.85;2.03;;;8.40;99.90;;;;;;4983847;28;20541;-75
2022/11/03 04:55:49;;;;;;;10.35;2.30;;;8.40;99.90;;;;;;4985067;28;20039;-75
2022/11/03 04:58:20;;;;;;;10.73;2.00;;;8.40;99.90;;;;;;4985437;28;20023;-76
2022/11/03 05:00:52;;;;;;;9.00;2.60;;;8.40;99.90;;;;;;4966494;28;20378;-75
2022/11/03 05:03:31;;;;;;;16.27;2.38;;;8.40;99.90;;;;;;4965321;28;20023;-78
2022/11/03 05:05:58;;;;;;;6.75;2.05;;;8.40;99.90;;;;;;4985380;28;20058;-76
2022/11/03 05:08:24;;;;;;;10.80;1.88;;;8.40;99.90;;;;;;4968286;28;20027;-77
2022/11/03 05:10:50;;;;;;;10.88;2.35;;;8.50;99.90;;;;;;4967943;28;20050;-78
2022/11/03 05:13:27;;;;;;;12.02;2.33;;;8.50;99.90;;;;;;4985324;28;20034;-76
2022/11/03 05:16:01;;;;;;;9.85;2.50;;;8.50;99.90;;;;;;4967412;28;20038;-76
2022/11/03 05:18:34;;;;;;;18.95;2.70;;;8.50;99.90;;;;;;4984907;28;20058;-77
2022/11/03 05:21:07;;;;;;;12.63;2.20;;;8.50;99.90;;;;;;4967633;28;20054;-77
2022/11/03 05:24:05;;;;;;;10.13;2.33;;;8.50;99.90;;;;;;4967100;28;20031;-75
2022/11/03 05:26:34;;;;;;;6.55;2.38;;;8.50;99.90;;;;;;4983263;28;20046;-77
2022/11/03 05:29:07;;;;;;;16.55;2.95;;;8.60;99.90;;;;;;4984809;28;20035;-77
2022/11/03 05:31:35;;;;;;;13.70;2.28;;;8.60;99.90;;;;;;4984230;28;20026;-76
2022/11/03 05:34:15;;;;;;;19.38;3.08;;;8.50;99.90;;;;;;4983388;28;20031;-77
2022/11/03 05:36:41;;;;;;;21.15;2.95;;;8.60;99.90;;;;;;4983887;28;20094;-76
2022/11/03 05:39:30;;;;;;;9.00;2.22;;;8.60;99.90;;;;;;4984295;28;20035;-76
2022/11/03 05:41:59;;;;;;;13.43;2.22;;;8.60;99.90;;;;;;4967881;28;20388;-76
2022/11/03 05:44:33;;;;;;;11.93;2.70;;;8.60;99.90;;;;;;4988352;28;20042;-77
2022/11/03 05:47:00;;;;;;;15.60;3.10;;;8.60;99.90;;;;;;4988402;28;20078;-76
2022/11/03 05:49:27;;;;;;;14.45;2.97;;;8.70;99.90;;;;;;4988190;28;20473;-76
2022/11/03 05:51:53;;;;;;;12.48;2.47;;;8.70;99.90;;;;;;4988153;28;20086;-79
2022/11/03 05:54:25;;;;;;;10.82;2.63;;;8.70;99.90;;;;;;4986866;28;20050;-79
2022/11/03 05:56:51;;;;;;;12.00;2.97;;;8.70;99.90;;;;;;4988552;28;20098;-78
2022/11/03 05:59:25;;;;;;;16.27;2.72;;;8.70;99.90;;;;;;4988092;28;20030;-78
2022/11/03 06:01:54;;;;;;;8.98;2.47;;;8.70;99.90;;;;;;4988376;28;20027;-76
2022/11/03 06:04:27;;;;;;;14.80;3.15;;;8.70;99.90;;;;;;4987387;28;20031;-76
2022/11/03 06:06:59;;;;;;;10.70;2.50;;;8.80;99.90;;;;;;4984046;28;20043;-76
2022/11/03 06:09:26;;;;;;;13.10;2.65;;;8.70;99.90;;;;;;4970354;28;20034;-78
2022/11/03 06:11:55;;;;;;;12.48;2.10;;;8.80;99.90;;;;;;4987643;28;20027;-76
2022/11/03 06:14:28;;;;;;;16.10;2.97;;;8.80;99.90;;;;;;4987906;28;20031;-78
2022/11/03 06:17:04;;;;;;;11.07;2.75;;;8.80;99.90;;;;;;4970457;28;20533;-76
2022/11/03 06:19:43;;;;;;;9.52;2.60;;;8.80;99.90;;;;;;4986945;28;20042;-75
2022/11/03 06:22:29;;;;;;;7.85;2.47;;;8.80;99.90;;;;;;4984343;28;20058;-78
2022/11/03 06:25:09;;;;;;;17.65;2.95;;;8.90;99.90;;;;;;4976527;28;20038;-76
2022/11/03 06:27:34;;;;;;;16.98;2.45;;;8.90;99.90;;;;;;4967702;28;20027;-78
2022/11/03 06:30:13;;;;;;;10.70;2.38;;;8.80;99.90;;;;;;4971184;28;20031;-78
2022/11/03 06:32:39;;;;;;;12.27;3.05;;;9.00;99.90;;;;;;4959948;28;20026;-78
2022/11/03 06:35:10;;;;;;;11.77;2.75;;;8.90;99.90;;;;;;4986380;28;20086;-77
2022/11/03 06:37:36;;;;;;;13.27;2.50;;;8.90;99.90;;;;;;4970035;28;20062;-79
2022/11/03 06:40:25;;;;;;;18.33;2.97;;;8.90;99.90;;;;;;4987267;28;20052;-77
2022/11/03 06:42:57;;;;;;;18.08;2.88;;;9.00;99.90;;;;;;4969909;28;20034;-78
2022/11/03 06:45:24;;;;;;;12.07;2.30;;;9.00;99.90;;;;;;4986227;28;20030;-81
2022/11/03 06:47:52;;;;;;;20.50;3.00;;;9.00;99.90;;;;;;4987455;28;20026;-82
2022/11/03 06:50:28;;;;;;;12.93;3.17;;;9.10;99.90;;;;;;4970071;28;20032;-79
2022/11/03 06:52:55;;;;;;;14.02;3.67;;;9.10;99.90;;;;;;4984665;28;20045;-80
2022/11/03 06:55:27;;;;;;;8.07;2.60;;;9.10;99.90;;;;;;4968611;28;20039;-78
2022/11/03 06:58:16;;;;;;;6.25;2.38;;;9.10;99.90;;;;;;4966461;28;20037;-82
2022/11/03 07:00:52;;;;;;;21.30;3.00;;;9.10;99.90;;;;;;4977306;28;20047;-81
2022/11/03 07:03:30;;;;;;;12.27;2.63;;;9.20;99.90;;;;;;4974565;28;20038;-81
2022/11/03 07:06:16;;;;;;;13.30;2.75;;;9.20;99.90;;;;;;4966991;29;20054;-78
2022/11/03 07:08:54;;;;;;;10.57;2.90;;;9.20;99.90;;;;;;4967373;28;20094;-72
2022/11/03 07:11:29;;;;;;;11.23;2.42;;;9.30;99.90;;;;;;4983686;28;20031;-82
2022/11/03 07:14:18;;;;;;;10.45;2.40;;;9.20;99.90;;;;;;4990342;28;20023;-78
2022/11/03 07:16:52;;;;;;;9.23;2.75;;;9.30;99.90;;;;;;4973849;28;20063;-79
2022/11/03 07:19:25;;;;;;;9.02;2.75;;;9.30;99.90;;;;;;4983099;28;20031;-77
2022/11/03 07:21:56;;;;;;;12.13;3.10;;;9.30;99.90;;;;;;4973710;28;20079;-79
2022/11/03 07:24:31;;;;;;;15.32;3.92;;;9.30;99.90;;;;;;4982089;28;20038;-78
2022/11/03 07:27:26;;;;;;;11.75;3.08;;;9.40;99.90;;;;;;4966321;28;21024;-82
2022/11/03 07:30:13;;;;;;;18.33;3.50;;;9.40;99.90;;;;;;4983279;28;20069;-80
2022/11/03 07:32:39;;;;;;;16.70;3.13;;;9.40;99.90;;;;;;4985350;28;20062;-78
2022/11/03 07:35:31;;;;;;;14.60;3.20;;;9.40;99.90;;;;;;4986682;28;20030;-78
2022/11/03 07:38:01;;;;;;;10.75;3.17;;;9.50;99.90;;;;;;4973614;28;20039;-76
2022/11/03 07:40:30;;;;;;;14.57;3.38;;;9.50;99.90;;;;;;4983958;28;20027;-72
2022/11/03 07:42:59;;;;;;;19.83;3.25;;;9.50;99.90;;;;;;4984250;28;20039;-78
2022/11/03 07:45:47;;;;;;;10.77;2.80;;;9.60;99.90;;;;;;4969378;28;20027;-77
2022/11/03 07:48:28;;;;;;;13.75;2.28;;;9.60;99.90;;;;;;4984902;28;20652;-79
2022/11/03 07:50:59;;;;;;;15.77;2.88;;;9.70;99.90;;;;;;4983753;28;20386;-76
2022/11/03 07:53:37;;;;;;;14.13;3.10;;;9.70;99.90;;;;;;4985720;28;20038;-78
2022/11/03 07:56:21;;;;;;;19.92;2.38;;;9.80;99.90;;;;;;4985972;28;20031;-73
2022/11/03 07:58:53;;;;;;;11.05;2.60;;;9.80;99.90;;;;;;4983301;28;20024;-75
2022/11/03 08:01:36;;;;;;;14.25;2.90;;;9.90;99.90;;;;;;4980917;28;20066;-79
2022/11/03 08:04:12;;;;;;;10.73;3.00;;;10.00;99.90;;;;;;4984356;28;20037;-76
2022/11/03 08:06:37;;;;;;;10.45;2.78;;;10.00;99.90;;;;;;4967044;28;20109;-79
2022/11/03 08:09:04;;;;;;;10.82;3.10;;;10.10;99.90;;;;;;4983865;28;20034;-77
2022/11/03 08:11:30;;;;;;;12.38;2.50;;;10.10;99.90;;;;;;4985505;28;20398;-78
2022/11/03 08:13:56;;;;;;;10.52;2.90;;;10.10;99.90;;;;;;4984611;28;20088;-77
2022/11/03 08:16:22;;;;;;;13.13;3.38;;;10.20;99.90;;;;;;4967635;28;20035;-80
2022/11/03 08:18:47;;;;;;;8.10;2.35;;;10.30;99.90;;;;;;4984018;28;20479;-78
2022/11/03 08:21:20;;;;;;;8.70;2.70;;;10.30;99.90;;;;;;4966392;28;20031;-79
2022/11/03 08:23:45;;;;;;;16.10;3.22;;;10.40;99.90;;;;;;4982170;28;20026;-75
2022/11/03 08:26:11;;;;;;;12.43;2.60;;;10.40;99.90;;;;;;4979830;28;20062;-76
2022/11/03 08:28:36;;;;;;;13.27;2.95;;;10.50;99.90;;;;;;4968216;28;20023;-77
2022/11/03 08:31:03;;;;;;;17.23;3.35;;;10.50;99.90;;;;;;4967478;28;20034;-79
2022/11/03 08:33:33;;;;;;;12.63;3.65;;;10.60;99.90;;;;;;4984071;28;20110;-74
2022/11/03 08:36:00;;;;;;;11.55;2.78;;;10.70;99.90;;;;;;4965057;29;20472;-78
2022/11/03 08:38:26;;;;;;;22.38;3.28;;;10.70;99.90;;;;;;4955759;28;20118;-79
2022/11/03 08:40:54;;;;;;;11.80;2.80;;;10.80;99.90;;;;;;4978618;28;20050;-78
2022/11/03 08:43:22;;;;;;;17.33;3.35;;;10.90;99.90;;;;;;4978064;28;20093;-78
2022/11/03 08:45:52;;;;;;;13.13;3.22;;;10.90;99.90;;;;;;4966862;28;20038;-79
2022/11/03 08:48:21;;;;;;;13.20;3.05;;;11.00;99.90;;;;;;4984917;28;20030;-74
2022/11/03 08:50:49;;;;;;;11.65;3.17;;;11.00;99.90;;;;;;4965907;28;20027;-76
2022/11/03 08:53:15;;;;;;;13.15;3.47;;;11.10;99.90;;;;;;4981770;28;20054;-77
2022/11/03 08:55:41;;;;;;;15.65;3.10;;;11.20;99.90;;;;;;4984971;28;20102;-75
2022/11/03 08:58:07;;;;;;;11.70;3.53;;;11.20;99.90;;;;;;4983910;28;20037;-79
2022/11/03 09:00:34;;;;;;;13.77;3.03;;;11.30;99.90;;;;;;4983206;28;20123;-76
2022/11/03 09:03:00;;;;;;;12.63;3.05;;;11.30;99.90;;;;;;4967943;28;20057;-76
2022/11/03 09:05:25;;;;;;;10.60;3.25;;;11.50;99.90;;;;;;4984816;28;20042;-79
2022/11/03 09:07:51;;;;;;;10.57;3.28;;;11.50;99.90;;;;;;4985148;28;20074;-78
2022/11/03 09:10:16;;;;;;;8.77;3.03;;;11.50;99.90;;;;;;4984313;28;20027;-71
2022/11/03 09:12:42;;;;;;;17.73;3.10;;;11.60;99.90;;;;;;4955392;28;20031;-76
2022/11/03 09:15:08;;;;;;;11.93;2.58;;;11.60;99.90;;;;;;4984815;28;20079;-77
2022/11/03 09:17:34;;;;;;;14.80;2.63;;;11.60;99.90;;;;;;4983852;28;20106;-76
2022/11/03 09:19:59;;;;;;;14.85;3.05;;;11.60;99.90;;;;;;4989400;28;20026;-72
2022/11/03 09:22:25;;;;;;;14.60;3.35;;;11.70;99.90;;;;;;4989526;28;20058;-77
2022/11/03 09:24:51;;;;;;;14.20;3.05;;;11.70;99.90;;;;;;4990229;28;20030;-79
2022/11/03 09:27:17;;;;;;;9.82;3.17;;;11.70;99.90;;;;;;4988922;28;20031;-79
2022/11/03 09:29:49;;;;;;;15.68;3.70;;;11.70;99.90;;;;;;4988966;28;20038;-73
2022/11/03 09:32:15;;;;;;;10.52;2.92;;;11.70;99.90;;;;;;4971890;28;20026;-76
2022/11/03 09:34:41;;;;;;;15.32;2.60;;;11.70;99.90;;;;;;4988494;28;20029;-75
2022/11/03 09:37:07;;;;;;;10.38;3.25;;;11.70;99.90;;;;;;4988125;28;20089;-76
2022/11/03 09:39:33;;;;;;;11.10;3.05;;;11.80;99.90;;;;;;4985013;28;20027;-79
2022/11/03 09:41:59;;;;;;;8.38;2.58;;;11.80;99.90;;;;;;4969745;28;20034;-77
2022/11/03 09:44:25;;;;;;;13.55;2.95;;;11.80;99.90;;;;;;4988996;28;20027;-80
2022/11/03 09:46:52;;;;;;;9.63;2.90;;;11.90;99.90;;;;;;4989392;28;20038;-76
2022/11/03 09:49:21;;;;;;;19.30;3.25;;;12.00;99.90;;;;;;4986886;28;20093;-76
2022/11/03 09:51:47;;;;;;;10.95;3.00;;;12.00;99.90;;;;;;4987458;28;20031;-78
2022/11/03 09:54:15;;;;;;;10.40;2.72;;;12.10;99.90;;;;;;4970770;28;20037;-77
2022/11/03 09:56:42;;;;;;;10.57;3.20;;;12.20;99.90;;;;;;4987102;28;20030;-75
2022/11/03 09:59:18;;;;;;;11.80;3.22;;;12.20;99.90;;;;;;4974837;28;20078;-75
2022/11/03 10:01:47;;;;;;;17.52;3.05;;;12.30;99.90;;;;;;4984640;28;20450;-79
2022/11/03 10:04:13;;;;;;;14.50;2.90;;;12.40;99.90;;;;;;4967944;28;20038;-77
2022/11/03 10:06:39;;;;;;;9.63;2.60;;;12.40;99.90;;;;;;4983978;28;20050;-80
2022/11/03 10:09:09;;;;;;;10.55;2.38;;;12.50;99.90;;;;;;4985815;28;20037;-76
2022/11/03 10:11:36;;;;;;;11.52;3.28;;;12.50;99.90;;;;;;4984460;28;20039;-79
2022/11/03 10:14:02;;;;;;;12.45;2.80;;;12.50;99.90;;;;;;4985775;28;20034;-78
2022/11/03 10:16:28;;;;;;;13.90;3.42;;;12.50;99.90;;;;;;4985157;28;20046;-79
2022/11/03 10:18:53;;;;;;;18.50;3.60;;;12.60;99.90;;;;;;4967627;29;20024;-76
2022/11/03 10:21:26;;;;;;;8.23;2.85;;;12.60;99.90;;;;;;4969822;28;20030;-77
2022/11/03 10:23:51;;;;;;;13.68;2.85;;;12.60;99.90;;;;;;4987923;28;20019;-74
2022/11/03 10:26:19;;;;;;;9.23;3.03;;;12.70;99.90;;;;;;4987883;28;20038;-75
2022/11/03 10:29:03;;;;;;;11.13;2.70;;;12.70;99.90;;;;;;4969000;28;20023;-80
2022/11/03 10:31:39;;;;;;;16.90;3.22;;;12.80;99.90;;;;;;4975762;28;20121;-76
2022/11/03 10:34:25;;;;;;;10.85;2.40;;;12.90;99.90;;;;;;4986988;28;20066;-72
2022/11/03 10:37:25;;;;;;;11.20;2.63;;;12.90;99.90;;;;;;4986878;28;20035;-76
2022/11/03 10:39:53;;;;;;;10.25;2.80;;;12.90;99.90;;;;;;4928011;28;20039;-79
2022/11/03 10:42:29;;;;;;;8.20;2.78;;;12.90;99.90;;;;;;4969878;28;20045;-81
2022/11/03 10:45:16;;;;;;;15.65;2.45;;;12.90;99.90;;;;;;4969282;28;20031;-79
2022/11/03 10:47:43;;;;;;;11.93;2.72;;;13.00;99.90;;;;;;4969582;28;20106;-78
2022/11/03 10:50:26;;;;;;;10.38;2.25;;;13.00;99.90;;;;;;4969533;28;20098;-78
2022/11/03 10:52:53;;;;;;;12.18;2.95;;;12.90;99.90;;;;;;4986589;28;20573;-80
2022/11/03 10:55:20;;;;;;;13.43;2.97;;;12.90;99.90;;;;;;4963309;29;20047;-78
2022/11/03 10:57:46;;;;;;;15.07;2.92;;;12.90;99.90;;;;;;4964782;29;20027;-82
2022/11/03 11:00:16;;;;;;;11.80;2.80;;;12.90;99.90;;;;;;4979211;28;20063;-81
2022/11/03 11:02:57;;;;;;;10.48;2.67;;;12.80;99.90;;;;;;4981160;28;20030;-81
2022/11/03 11:05:23;;;;;;;10.27;3.03;;;12.80;99.90;;;;;;4963746;28;20035;-75
2022/11/03 11:07:50;;;;;;;13.52;3.47;;;12.80;99.90;;;;;;4986796;28;20112;-82
2022/11/03 11:10:22;;;;;;;11.00;2.90;;;12.80;99.90;;;;;;4967862;28;20042;-79
2022/11/03 11:13:11;;;;;;;9.45;2.75;;;12.80;99.90;;;;;;4980843;28;20042;-76
2022/11/03 11:15:52;;;;;;;13.38;2.63;;;12.90;99.90;;;;;;4959639;28;20046;-74
2022/11/03 11:18:30;;;;;;;15.85;2.55;;;12.80;99.90;;;;;;4962874;28;20047;-76
2022/11/03 11:21:00;;;;;;;16.55;3.00;;;12.90;99.90;;;;;;4974192;28;20039;-80
2022/11/03 11:23:26;;;;;;;16.63;3.30;;;12.90;99.90;;;;;;4985151;28;20042;-78
2022/11/03 11:26:09;;;;;;;17.08;3.38;;;13.00;99.90;;;;;;4974359;28;20066;-80
2022/11/03 11:28:44;;;;;;;9.20;2.47;;;13.00;99.90;;;;;;4983263;28;20054;-81
2022/11/03 11:31:27;;;;;;;11.40;2.33;;;13.10;99.90;;;;;;4977683;28;20316;-78
2022/11/03 11:34:08;;;;;;;11.05;2.80;;;13.10;99.90;;;;;;4981140;28;20417;-81
2022/11/03 11:36:35;;;;;;;12.43;3.08;;;13.10;99.90;;;;;;4974156;28;20043;-80
2022/11/03 11:39:02;;;;;;;15.40;2.85;;;13.20;99.90;;;;;;4977176;28;20033;-77
2022/11/03 11:42:05;;;;;;;12.57;2.90;;;13.50;99.90;;;;;;4983254;28;20038;-79
2022/11/03 11:44:56;;;;;;;12.45;2.75;;;13.90;99.90;;;;;;4962299;28;20036;-76
2022/11/03 11:47:42;;;;;;;9.93;2.58;;;14.10;99.90;;;;;;4965951;28;20047;-79
2022/11/03 11:50:10;;;;;;;14.65;2.60;;;14.30;99.90;;;;;;4983883;28;20087;-81
2022/11/03 11:52:47;;;;;;;7.28;2.45;;;14.30;99.90;;;;;;4964463;28;20033;-81
2022/11/03 11:55:25;;;;;;;14.88;2.92;;;14.30;99.90;;;;;;4977182;28;20039;-75
2022/11/03 11:57:52;;;;;;;14.05;2.55;;;14.20;99.90;;;;;;4984525;28;20030;-73
2022/11/03 12:00:21;;;;;;;13.40;2.70;;;14.10;99.90;;;;;;4960676;28;20023;-76
2022/11/03 12:02:47;;;;;;;12.50;2.90;;;14.00;99.90;;;;;;4985110;28;20030;-75
2022/11/03 12:05:21;;;;;;;10.45;2.55;;;14.00;99.90;;;;;;4985290;28;20026;-75
2022/11/03 12:07:47;;;;;;;11.35;2.72;;;13.90;99.90;;;;;;4984773;28;20062;-78
2022/11/03 12:10:32;;;;;;;9.98;2.38;;;13.90;99.90;;;;;;4963956;28;20050;-81
2022/11/03 12:13:00;;;;;;;10.60;2.75;;;13.90;99.90;;;;;;4976976;28;20038;-75
2022/11/03 12:15:51;;;;;;;12.55;2.33;;;13.90;99.90;;;;;;4982473;28;20042;-77
2022/11/03 12:18:34;;;;;;;14.32;2.60;;;13.80;99.90;;;;;;4967581;28;20042;-75
2022/11/03 12:21:02;;;;;;;12.23;2.53;;;13.80;99.90;;;;;;4983186;28;20054;-75
2022/11/03 12:23:47;;;;;;;10.13;2.30;;;13.80;99.90;;;;;;4982739;28;20027;-77
2022/11/03 12:26:37;;;;;;;6.82;2.65;;;13.80;99.90;;;;;;4984323;28;20054;-76
2022/11/03 12:29:10;;;;;;;6.80;2.40;;;13.80;99.90;;;;;;4984124;28;20154;-77
2022/11/03 12:31:36;;;;;;;8.05;2.60;;;13.80;99.90;;;;;;4982323;28;20123;-76
2022/11/03 12:34:01;;;;;;;7.65;2.67;;;13.70;99.90;;;;;;4984561;28;20031;-77
2022/11/03 12:36:27;;;;;;;8.23;2.22;;;13.70;99.90;;;;;;4960757;28;20512;-79
2022/11/03 12:38:53;;;;;;;12.23;2.35;;;13.70;99.90;;;;;;4981407;28;20468;-74
2022/11/03 12:41:23;;;;;;;8.68;2.25;;;13.60;99.90;;;;;;4984232;28;20043;-74
2022/11/03 12:43:51;;;;;;;12.50;2.55;;;13.60;99.90;;;;;;4966913;28;20383;-76
2022/11/03 12:46:18;;;;;;;8.90;2.33;;;13.60;99.90;;;;;;4984400;28;20042;-75
2022/11/03 12:48:46;;;;;;;8.30;2.13;;;13.60;99.90;;;;;;4984046;28;20030;-73
2022/11/03 12:51:16;;;;;;;9.65;2.03;;;13.60;99.90;;;;;;4983984;28;20090;-75
2022/11/03 12:53:42;;;;;;;6.03;2.08;;;13.60;99.90;;;;;;4983899;28;20035;-75
2022/11/03 12:56:09;;;;;;;12.82;2.67;;;13.60;99.90;;;;;;4982920;28;20062;-73
2022/11/03 12:58:35;;;;;;;9.55;2.47;;;13.60;99.90;;;;;;4965687;28;20030;-75
2022/11/03 13:01:01;;;;;;;5.50;2.22;;;13.60;99.90;;;;;;4982729;28;20107;-73
2022/11/03 13:03:27;;;;;;;8.15;2.33;;;13.60;99.90;;;;;;4966759;28;20030;-76
2022/11/03 13:05:53;;;;;;;8.90;2.40;;;13.50;99.90;;;;;;4984294;28;20055;-78
2022/11/03 13:08:18;;;;;;;7.22;1.98;;;13.60;99.90;;;;;;4985123;28;20023;-75
2022/11/03 13:10:44;;;;;;;6.22;2.20;;;13.50;99.90;;;;;;4983072;28;20042;-75
2022/11/03 13:13:10;;;;;;;8.05;2.60;;;13.50;99.90;;;;;;4984056;28;20129;-76
2022/11/03 13:15:36;;;;;;;15.77;2.95;;;13.50;99.90;;;;;;4966868;28;20043;-75
2022/11/03 13:18:02;;;;;;;12.15;2.03;;;13.40;99.90;;;;;;4966751;28;20031;-76
2022/11/03 13:20:28;;;;;;;28.38;3.38;;;13.40;99.90;;;;;;4967287;28;20027;-76
2022/11/03 13:22:53;;;;;;;9.80;1.90;;;13.40;99.90;;;;;;4967406;28;20117;-75
2022/11/03 13:25:19;;;;;;;14.18;2.30;;;13.30;99.90;;;;;;4984129;28;20072;-76